Time;durP1;ratioP1;P1;durP2;ratioP2;P2;SDS_P1;SDS_P2;PMS_P1;PMS_P2;Temp;Humidity;BMP_temperature;BMP_pressure;BME280_temperature;BME280_humidity;BME280_pressure;Samples;Min_cycle;Max_cycle;Signal;HPM_P1;HPM_P2
2021/12/31 00:00:34;;;;;;;10.30;5.80;;;;;;;;;;5034602;28;20200;-73
2021/12/31 00:03:00;;;;;;;9.93;6.27;;;;;;;;;;5034317;28;20204;-73
2021/12/31 00:05:27;;;;;;;8.40;5.63;;;;;;;;;;5034191;28;20232;-73
2021/12/31 00:07:53;;;;;;;10.20;5.97;;;;;;;;;;5034189;28;20299;-72
2021/12/31 00:10:19;;;;;;;8.67;5.67;;;;;;;;;;5034155;28;20240;-73
2021/12/31 00:12:46;;;;;;;10.20;5.80;;;;;;;;;;5034325;28;20200;-73
2021/12/31 00:15:12;;;;;;;9.10;5.73;;;;;;;;;;5034037;28;20205;-73
2021/12/31 00:17:39;;;;;;;6.23;5.13;;;;;;;;;;5034109;28;20211;-74
2021/12/31 00:20:11;;;;;;;6.87;5.23;;;;;;;;;;5033877;28;20201;-73
2021/12/31 00:23:01;;;;;;;9.43;5.40;;;;;;;;;;5034151;28;20209;-75
2021/12/31 00:25:27;;;;;;;9.47;5.50;;;;;;;;;;5033961;28;20213;-74
2021/12/31 00:27:53;;;;;;;7.80;5.00;;;;;;;;;;5034088;28;20716;-74
2021/12/31 00:30:19;;;;;;;6.80;4.83;;;;;;;;;;5033557;28;20211;-75
2021/12/31 00:32:45;;;;;;;5.90;5.30;;;;;;;;;;5030777;28;20196;-67
2021/12/31 00:35:11;;;;;;;6.63;4.73;;;;;;;;;;5033293;28;20243;-68
2021/12/31 00:37:39;;;;;;;5.77;4.43;;;;;;;;;;5033954;28;20234;-66
2021/12/31 00:40:07;;;;;;;7.57;4.80;;;;;;;;;;5033253;28;20208;-68
2021/12/31 00:42:33;;;;;;;6.83;4.50;;;;;;;;;;5033941;28;20659;-69
2021/12/31 00:44:58;;;;;;;6.07;4.03;;;;;;;;;;5033696;28;20335;-68
2021/12/31 00:47:25;;;;;;;6.27;3.93;;;;;;;;;;5033660;28;20211;-68
2021/12/31 00:49:51;;;;;;;7.03;4.07;;;;;;;;;;5033348;28;20675;-69
2021/12/31 00:52:17;;;;;;;5.40;3.73;;;;;;;;;;5033485;28;20197;-64
2021/12/31 00:54:44;;;;;;;5.00;3.60;;;;;;;;;;5033348;28;20271;-64
2021/12/31 00:57:11;;;;;;;6.83;4.37;;;;;;;;;;5033600;28;20221;-64
2021/12/31 01:00:29;;;;;;;4.97;3.80;;;;;;;;;;5033391;28;20541;-64
2021/12/31 01:02:55;;;;;;;6.03;4.03;;;;;;;;;;4970320;28;20354;-62
2021/12/31 01:05:21;;;;;;;6.90;3.83;;;;;;;;;;4971713;28;20231;-65
2021/12/31 01:07:47;;;;;;;5.50;4.00;;;;;;;;;;5006373;28;20208;-65
2021/12/31 01:10:18;;;;;;;5.53;4.20;;;;;;;;;;5032935;28;20255;-65
2021/12/31 01:12:45;;;;;;;5.33;4.57;;;;;;;;;;5033196;28;20201;-65
2021/12/31 01:15:22;;;;;;;6.57;4.50;;;;;;;;;;5033045;28;20197;-65
2021/12/31 01:20:14;;;;;;;8.37;4.77;;;;;;;;;;5033058;28;20725;-66
2021/12/31 01:22:41;;;;;;;5.00;4.50;;;;;;;;;;5033012;28;20209;-66
2021/12/31 01:25:08;;;;;;;6.30;4.67;;;;;;;;;;5032736;28;20229;-63
2021/12/31 01:27:35;;;;;;;6.27;4.93;;;;;;;;;;5031741;28;20224;-65
2021/12/31 01:30:01;;;;;;;7.97;5.53;;;;;;;;;;5033002;28;20211;-65
2021/12/31 01:32:29;;;;;;;6.30;5.60;;;;;;;;;;5032509;28;20679;-64
2021/12/31 01:34:55;;;;;;;10.27;4.70;;;;;;;;;;5032644;28;20205;-65
2021/12/31 01:37:21;;;;;;;5.87;5.37;;;;;;;;;;5031874;28;20243;-67
2021/12/31 01:39:48;;;;;;;6.10;5.50;;;;;;;;;;5032248;28;20225;-66
2021/12/31 01:42:14;;;;;;;5.13;4.73;;;;;;;;;;5032736;28;20280;-65
2021/12/31 01:44:46;;;;;;;6.03;5.33;;;;;;;;;;5032576;28;20279;-66
2021/12/31 01:47:15;;;;;;;5.90;5.30;;;;;;;;;;5032111;28;20215;-66
2021/12/31 01:49:53;;;;;;;6.20;5.07;;;;;;;;;;5032533;28;20211;-66
2021/12/31 01:52:19;;;;;;;6.13;5.13;;;;;;;;;;5032171;28;20755;-66
2021/12/31 01:54:46;;;;;;;7.27;5.00;;;;;;;;;;5032049;28;20675;-66
2021/12/31 01:57:12;;;;;;;6.20;4.77;;;;;;;;;;5032365;28;20284;-65
2021/12/31 01:59:39;;;;;;;7.93;5.27;;;;;;;;;;5032444;28;20255;-66
2021/12/31 02:02:07;;;;;;;5.60;4.97;;;;;;;;;;5032284;28;20199;-66
2021/12/31 02:04:33;;;;;;;6.23;5.00;;;;;;;;;;5032332;28;20250;-65
2021/12/31 02:06:59;;;;;;;5.23;4.73;;;;;;;;;;5032128;28;20204;-65
2021/12/31 02:09:26;;;;;;;7.47;5.00;;;;;;;;;;5032048;28;20193;-66
2021/12/31 02:11:54;;;;;;;7.70;5.30;;;;;;;;;;5032275;28;20200;-65
2021/12/31 02:14:20;;;;;;;6.53;4.80;;;;;;;;;;5032055;28;20231;-66
2021/12/31 02:16:46;;;;;;;6.20;5.00;;;;;;;;;;5031956;28;20603;-65
2021/12/31 02:19:14;;;;;;;5.37;4.87;;;;;;;;;;5031902;28;20197;-64
2021/12/31 02:21:44;;;;;;;7.50;5.20;;;;;;;;;;5032053;28;20304;-65
2021/12/31 02:24:10;;;;;;;5.50;5.00;;;;;;;;;;5031876;28;20231;-65
2021/12/31 02:26:36;;;;;;;6.63;5.53;;;;;;;;;;5032013;28;20205;-66
2021/12/31 02:29:03;;;;;;;6.87;4.63;;;;;;;;;;5032009;28;20227;-67
2021/12/31 02:31:29;;;;;;;7.07;5.57;;;;;;;;;;5031806;28;20643;-65
2021/12/31 02:33:55;;;;;;;6.00;5.40;;;;;;;;;;5031857;28;20295;-65
2021/12/31 02:36:21;;;;;;;7.07;5.60;;;;;;;;;;5031785;28;20192;-66
2021/12/31 02:38:49;;;;;;;6.27;5.63;;;;;;;;;;5031964;28;20208;-65
2021/12/31 02:41:15;;;;;;;8.03;5.77;;;;;;;;;;5031789;28;20204;-66
2021/12/31 02:43:41;;;;;;;8.20;5.43;;;;;;;;;;5031830;28;20242;-65
2021/12/31 02:46:07;;;;;;;7.80;5.67;;;;;;;;;;5031668;28;20664;-66
2021/12/31 02:48:33;;;;;;;8.53;5.57;;;;;;;;;;5032346;28;20200;-66
2021/12/31 02:51:00;;;;;;;5.83;5.23;;;;;;;;;;5035526;28;20557;-66
2021/12/31 02:53:30;;;;;;;7.27;5.77;;;;;;;;;;5035432;28;20711;-67
2021/12/31 02:56:00;;;;;;;7.80;5.90;;;;;;;;;;5035332;28;20312;-68
2021/12/31 02:58:26;;;;;;;8.43;6.87;;;;;;;;;;5035460;28;20230;-67
2021/12/31 03:00:52;;;;;;;7.13;5.67;;;;;;;;;;5035546;28;20207;-66
2021/12/31 03:03:18;;;;;;;6.63;5.77;;;;;;;;;;5035591;28;20189;-66
2021/12/31 03:05:45;;;;;;;6.70;5.77;;;;;;;;;;5035640;28;20231;-66
2021/12/31 03:08:11;;;;;;;6.87;6.10;;;;;;;;;;5035424;28;20228;-66
2021/12/31 03:10:37;;;;;;;7.93;5.97;;;;;;;;;;5035360;28;20201;-66
2021/12/31 03:13:05;;;;;;;6.03;5.43;;;;;;;;;;5035645;28;20221;-66
2021/12/31 03:15:31;;;;;;;6.60;5.93;;;;;;;;;;5035326;28;20526;-67
2021/12/31 03:18:00;;;;;;;7.47;5.90;;;;;;;;;;5035325;28;20666;-67
2021/12/31 03:20:36;;;;;;;6.07;5.47;;;;;;;;;;5035285;28;20307;-67
2021/12/31 03:23:02;;;;;;;6.47;5.63;;;;;;;;;;5035404;28;20721;-66
2021/12/31 03:25:28;;;;;;;8.20;6.00;;;;;;;;;;5034930;28;20718;-66
2021/12/31 03:27:54;;;;;;;6.23;5.50;;;;;;;;;;5035189;28;20201;-67
2021/12/31 03:30:22;;;;;;;7.53;6.00;;;;;;;;;;5034996;28;20251;-66
2021/12/31 03:32:48;;;;;;;6.80;5.50;;;;;;;;;;5035080;28;20629;-65
2021/12/31 03:35:14;;;;;;;6.97;5.80;;;;;;;;;;5034978;28;20232;-66
2021/12/31 03:37:40;;;;;;;6.97;5.77;;;;;;;;;;5034751;28;20203;-66
2021/12/31 03:40:06;;;;;;;6.90;5.50;;;;;;;;;;5034932;28;20201;-65
2021/12/31 03:42:32;;;;;;;6.80;5.63;;;;;;;;;;5034931;28;20243;-66
2021/12/31 03:44:58;;;;;;;7.23;5.73;;;;;;;;;;5034818;28;20225;-66
2021/12/31 03:47:26;;;;;;;7.73;5.80;;;;;;;;;;5034734;28;20203;-66
2021/12/31 03:49:52;;;;;;;7.00;5.57;;;;;;;;;;5034887;28;20209;-66
2021/12/31 03:52:18;;;;;;;7.33;5.50;;;;;;;;;;5034670;28;20208;-66
2021/12/31 03:54:44;;;;;;;8.00;5.80;;;;;;;;;;5034225;28;20247;-66
2021/12/31 03:57:10;;;;;;;8.10;5.43;;;;;;;;;;5034617;28;20204;-66
2021/12/31 03:59:36;;;;;;;7.23;5.37;;;;;;;;;;5034042;28;20216;-65
2021/12/31 04:02:05;;;;;;;7.17;5.70;;;;;;;;;;5034629;28;20197;-65
2021/12/31 04:04:32;;;;;;;5.37;4.87;;;;;;;;;;5034248;28;20241;-65
2021/12/31 04:06:58;;;;;;;6.30;5.13;;;;;;;;;;5034240;28;20211;-66
2021/12/31 04:09:24;;;;;;;5.50;4.87;;;;;;;;;;5034279;28;20197;-66
2021/12/31 04:11:50;;;;;;;5.77;4.77;;;;;;;;;;5034234;28;20203;-65
2021/12/31 04:14:16;;;;;;;6.93;4.77;;;;;;;;;;5034388;28;20193;-66
2021/12/31 04:16:42;;;;;;;6.90;5.03;;;;;;;;;;5034376;28;20247;-66
2021/12/31 04:19:08;;;;;;;8.80;5.33;;;;;;;;;;5034132;28;20205;-66
2021/12/31 04:21:35;;;;;;;9.40;4.80;;;;;;;;;;5034286;28;20608;-66
2021/12/31 04:24:14;;;;;;;5.93;4.57;;;;;;;;;;5034044;28;20201;-66
2021/12/31 04:26:39;;;;;;;5.17;4.27;;;;;;;;;;5033980;28;20876;-66
2021/12/31 04:29:05;;;;;;;6.07;4.60;;;;;;;;;;5033966;28;20189;-65
2021/12/31 04:31:32;;;;;;;5.47;4.37;;;;;;;;;;5033918;28;20204;-65
2021/12/31 04:33:59;;;;;;;7.57;4.40;;;;;;;;;;5033875;28;20201;-66
2021/12/31 04:36:25;;;;;;;6.63;3.73;;;;;;;;;;5033693;28;20559;-65
2021/12/31 04:38:52;;;;;;;7.40;4.57;;;;;;;;;;5033882;28;20212;-65
2021/12/31 04:41:18;;;;;;;6.77;4.23;;;;;;;;;;5033745;28;20212;-66
2021/12/31 04:43:44;;;;;;;5.63;3.73;;;;;;;;;;5033712;28;20569;-65
2021/12/31 04:46:11;;;;;;;4.40;4.00;;;;;;;;;;5033728;28;20209;-67
2021/12/31 04:48:37;;;;;;;4.80;3.67;;;;;;;;;;5033613;28;20287;-67
2021/12/31 04:51:02;;;;;;;7.07;3.83;;;;;;;;;;5033556;28;20284;-66
2021/12/31 04:53:29;;;;;;;6.33;4.00;;;;;;;;;;5033523;28;20267;-66
2021/12/31 04:55:56;;;;;;;13.17;5.53;;;;;;;;;;5032405;28;20232;-66
2021/12/31 04:58:22;;;;;;;6.70;4.07;;;;;;;;;;5033366;28;20205;-67
2021/12/31 05:00:48;;;;;;;4.33;3.60;;;;;;;;;;5033694;28;20203;-66
2021/12/31 05:03:14;;;;;;;9.53;3.70;;;;;;;;;;5033226;28;20236;-65
2021/12/31 05:05:40;;;;;;;8.17;3.70;;;;;;;;;;5033030;28;20275;-65
2021/12/31 05:08:06;;;;;;;7.07;3.13;;;;;;;;;;5033229;28;20197;-67
2021/12/31 05:10:33;;;;;;;4.73;3.47;;;;;;;;;;5032916;28;20255;-65
2021/12/31 05:13:00;;;;;;;7.27;3.30;;;;;;;;;;5032435;28;20226;-65
2021/12/31 05:15:30;;;;;;;4.60;2.60;;;;;;;;;;5033222;28;20229;-65
2021/12/31 05:17:56;;;;;;;4.07;2.87;;;;;;;;;;5033062;28;20252;-67
2021/12/31 05:20:23;;;;;;;6.53;3.27;;;;;;;;;;5032929;28;20201;-66
2021/12/31 05:22:49;;;;;;;3.57;2.90;;;;;;;;;;5032925;28;20667;-66
2021/12/31 05:25:16;;;;;;;3.70;2.80;;;;;;;;;;5032964;28;20256;-66
2021/12/31 05:27:43;;;;;;;10.37;3.23;;;;;;;;;;5032750;28;20211;-67
2021/12/31 05:30:11;;;;;;;4.73;3.10;;;;;;;;;;5032909;28;20300;-67
2021/12/31 05:32:37;;;;;;;6.33;2.87;;;;;;;;;;5032685;28;20200;-66
2021/12/31 05:35:03;;;;;;;4.10;2.87;;;;;;;;;;5032918;28;20196;-67
2021/12/31 05:37:29;;;;;;;4.37;2.57;;;;;;;;;;5032664;28;20639;-66
2021/12/31 05:39:55;;;;;;;3.90;2.50;;;;;;;;;;5032672;28;20201;-66
2021/12/31 05:42:21;;;;;;;4.13;2.93;;;;;;;;;;5032531;28;20255;-66
2021/12/31 05:44:48;;;;;;;3.77;2.87;;;;;;;;;;5032486;28;20231;-67
2021/12/31 05:47:15;;;;;;;4.43;2.50;;;;;;;;;;5032551;28;20193;-66
2021/12/31 05:49:41;;;;;;;5.13;3.03;;;;;;;;;;5032398;28;20670;-66
2021/12/31 05:52:08;;;;;;;5.70;3.20;;;;;;;;;;5032399;28;20200;-66
2021/12/31 05:54:34;;;;;;;4.73;3.10;;;;;;;;;;5032197;28;20238;-62
2021/12/31 05:57:00;;;;;;;5.63;3.00;;;;;;;;;;5032361;28;20738;-65
2021/12/31 05:59:26;;;;;;;4.50;3.00;;;;;;;;;;5032237;28;20279;-66
2021/12/31 06:01:51;;;;;;;5.07;3.00;;;;;;;;;;5032276;28;20204;-65
2021/12/31 06:04:19;;;;;;;7.90;3.03;;;;;;;;;;5032124;28;20216;-66
2021/12/31 06:06:45;;;;;;;4.17;2.83;;;;;;;;;;5032175;28;20620;-66
2021/12/31 06:09:13;;;;;;;5.23;3.00;;;;;;;;;;5030785;28;20232;-66
2021/12/31 06:11:39;;;;;;;4.53;2.80;;;;;;;;;;5032144;28;20228;-66
2021/12/31 06:14:05;;;;;;;5.27;2.90;;;;;;;;;;5032188;28;20201;-67
2021/12/31 06:16:33;;;;;;;4.03;2.60;;;;;;;;;;5032194;28;20211;-67
2021/12/31 06:19:02;;;;;;;4.83;2.80;;;;;;;;;;5032056;28;20209;-66
2021/12/31 06:21:29;;;;;;;4.13;2.97;;;;;;;;;;5031903;28;20291;-66
2021/12/31 06:23:55;;;;;;;6.17;3.70;;;;;;;;;;5031809;28;20208;-66
2021/12/31 06:26:21;;;;;;;4.10;2.63;;;;;;;;;;5031901;28;20213;-66
2021/12/31 06:28:47;;;;;;;5.70;2.57;;;;;;;;;;5032021;28;20208;-66
2021/12/31 06:31:13;;;;;;;3.60;2.57;;;;;;;;;;5031979;28;20658;-65
2021/12/31 06:33:39;;;;;;;3.93;2.77;;;;;;;;;;5031683;28;20193;-66
2021/12/31 06:36:05;;;;;;;4.37;2.60;;;;;;;;;;5031782;28;20193;-67
2021/12/31 06:38:32;;;;;;;4.37;2.43;;;;;;;;;;5031854;28;20232;-66
2021/12/31 06:40:58;;;;;;;4.53;2.30;;;;;;;;;;5031794;28;20576;-66
2021/12/31 06:43:24;;;;;;;4.30;2.20;;;;;;;;;;5031811;28;20237;-66
2021/12/31 06:45:50;;;;;;;2.93;2.40;;;;;;;;;;5031646;28;20232;-66
2021/12/31 06:48:16;;;;;;;3.07;2.10;;;;;;;;;;5031856;28;20201;-66
2021/12/31 06:50:42;;;;;;;2.77;2.07;;;;;;;;;;5031712;28;20692;-65
2021/12/31 06:53:08;;;;;;;3.13;2.00;;;;;;;;;;5031644;28;20224;-66
2021/12/31 06:55:35;;;;;;;2.83;1.73;;;;;;;;;;5031670;28;20225;-65
2021/12/31 06:58:01;;;;;;;7.37;2.27;;;;;;;;;;5031765;28;20197;-66
2021/12/31 07:00:27;;;;;;;2.67;1.90;;;;;;;;;;5031571;28;20204;-65
2021/12/31 07:03:03;;;;;;;4.07;2.30;;;;;;;;;;5031623;28;20201;-65
2021/12/31 07:05:29;;;;;;;2.43;1.90;;;;;;;;;;5031550;28;20798;-67
2021/12/31 07:07:55;;;;;;;3.83;2.33;;;;;;;;;;5031639;28;20279;-65
2021/12/31 07:10:21;;;;;;;3.07;1.80;;;;;;;;;;5031644;28;20875;-65
2021/12/31 07:12:48;;;;;;;2.30;1.80;;;;;;;;;;5031399;28;20211;-66
2021/12/31 07:15:14;;;;;;;3.43;1.93;;;;;;;;;;5031647;28;20215;-66
2021/12/31 07:17:41;;;;;;;3.30;1.77;;;;;;;;;;5030952;28;20719;-66
2021/12/31 07:20:07;;;;;;;4.60;2.27;;;;;;;;;;5031450;28;20651;-66
2021/12/31 07:22:33;;;;;;;3.27;1.90;;;;;;;;;;5031564;28;20207;-65
2021/12/31 07:25:00;;;;;;;2.90;1.97;;;;;;;;;;5031463;28;20228;-65
2021/12/31 07:27:26;;;;;;;5.43;1.70;;;;;;;;;;5031207;28;20232;-64
2021/12/31 07:29:53;;;;;;;4.13;2.10;;;;;;;;;;5031299;28;20569;-64
2021/12/31 07:32:19;;;;;;;4.20;1.80;;;;;;;;;;5031404;28;20201;-65
2021/12/31 07:34:45;;;;;;;6.97;2.43;;;;;;;;;;5031953;28;20291;-64
2021/12/31 07:37:11;;;;;;;3.70;2.30;;;;;;;;;;5035054;28;20204;-64
2021/12/31 07:39:45;;;;;;;3.87;1.80;;;;;;;;;;5034535;28;20204;-64
2021/12/31 07:42:11;;;;;;;3.17;2.00;;;;;;;;;;5034667;28;20214;-64
2021/12/31 07:44:37;;;;;;;1.93;1.73;;;;;;;;;;5034566;28;20225;-64
2021/12/31 07:47:04;;;;;;;2.80;1.90;;;;;;;;;;5034838;28;20667;-64
2021/12/31 07:49:31;;;;;;;2.87;2.07;;;;;;;;;;5034550;28;20574;-64
2021/12/31 07:51:56;;;;;;;2.20;1.60;;;;;;;;;;5034631;28;20638;-65
2021/12/31 07:54:23;;;;;;;4.63;2.10;;;;;;;;;;5034449;28;20216;-64
2021/12/31 07:56:49;;;;;;;3.13;2.10;;;;;;;;;;5034556;28;20244;-65
2021/12/31 07:59:14;;;;;;;3.10;2.13;;;;;;;;;;5034637;28;20197;-65
2021/12/31 08:01:40;;;;;;;3.50;1.97;;;;;;;;;;5034233;28;20343;-66
2021/12/31 08:04:08;;;;;;;4.13;1.80;;;;;;;;;;5034453;28;20229;-65
2021/12/31 08:06:34;;;;;;;3.23;2.10;;;;;;;;;;5034400;28;20201;-65
2021/12/31 08:09:00;;;;;;;4.93;2.00;;;;;;;;;;5034483;28;20750;-65
2021/12/31 08:11:26;;;;;;;2.60;1.70;;;;;;;;;;5034371;28;20204;-66
2021/12/31 08:13:52;;;;;;;5.30;2.20;;;;;;;;;;5034233;28;20264;-65
2021/12/31 08:16:18;;;;;;;3.67;1.80;;;;;;;;;;5034528;28;20208;-66
2021/12/31 08:18:44;;;;;;;2.27;1.90;;;;;;;;;;5034222;28;20723;-65
2021/12/31 08:21:11;;;;;;;3.70;2.20;;;;;;;;;;5033511;28;20229;-65
2021/12/31 08:23:37;;;;;;;2.97;1.90;;;;;;;;;;5033870;28;20662;-65
2021/12/31 08:26:05;;;;;;;2.50;1.90;;;;;;;;;;5034045;28;20279;-65
2021/12/31 08:28:31;;;;;;;4.90;1.90;;;;;;;;;;5033966;28;20613;-65
2021/12/31 08:30:58;;;;;;;5.13;2.13;;;;;;;;;;5033936;28;20199;-65
2021/12/31 08:33:24;;;;;;;4.93;1.90;;;;;;;;;;5033870;28;20200;-65
2021/12/31 08:35:50;;;;;;;3.70;2.10;;;;;;;;;;5033930;28;20200;-66
2021/12/31 08:38:18;;;;;;;3.97;2.33;;;;;;;;;;5033839;28;20204;-65
2021/12/31 08:40:44;;;;;;;4.37;2.83;;;;;;;;;;5033389;28;20217;-66
2021/12/31 08:43:10;;;;;;;7.50;2.60;;;;;;;;;;5033620;28;20420;-64
2021/12/31 08:45:36;;;;;;;2.40;2.07;;;;;;;;;;5033096;28;20237;-65
2021/12/31 08:48:03;;;;;;;4.53;2.33;;;;;;;;;;5032811;28;20189;-65
2021/12/31 08:50:29;;;;;;;3.83;1.90;;;;;;;;;;5033540;28;20730;-65
2021/12/31 08:52:55;;;;;;;5.20;1.80;;;;;;;;;;5033332;28;20586;-65
2021/12/31 08:55:23;;;;;;;2.80;2.07;;;;;;;;;;5033060;28;20280;-66
2021/12/31 08:57:49;;;;;;;3.10;1.67;;;;;;;;;;5032970;28;20209;-65
2021/12/31 09:00:15;;;;;;;3.70;1.83;;;;;;;;;;5033043;28;20721;-71
2021/12/31 09:02:42;;;;;;;2.67;1.90;;;;;;;;;;5033187;28;20248;-66
2021/12/31 09:05:09;;;;;;;2.40;1.90;;;;;;;;;;5033228;28;20216;-65
2021/12/31 09:07:35;;;;;;;2.83;1.90;;;;;;;;;;5033166;28;20607;-63
2021/12/31 09:10:01;;;;;;;3.90;2.00;;;;;;;;;;5031483;28;20614;-68
2021/12/31 09:12:28;;;;;;;4.13;2.00;;;;;;;;;;5033213;28;20200;-68
2021/12/31 09:14:54;;;;;;;6.70;2.10;;;;;;;;;;5032978;28;20204;-62
2021/12/31 09:17:22;;;;;;;2.60;1.90;;;;;;;;;;5032954;28;20193;-58
2021/12/31 09:19:48;;;;;;;4.90;2.13;;;;;;;;;;5032909;28;20209;-60
2021/12/31 09:22:14;;;;;;;4.97;1.87;;;;;;;;;;5032880;28;20200;-59
2021/12/31 09:24:40;;;;;;;5.20;2.00;;;;;;;;;;5030948;28;20237;-60
2021/12/31 09:27:06;;;;;;;3.00;1.80;;;;;;;;;;5030849;28;20219;-60
2021/12/31 09:29:34;;;;;;;3.60;1.90;;;;;;;;;;5031982;28;20667;-59
2021/12/31 09:32:00;;;;;;;2.37;1.53;;;;;;;;;;5030741;28;20671;-61
2021/12/31 09:34:26;;;;;;;4.13;1.87;;;;;;;;;;5032614;28;20209;-60
2021/12/31 09:36:55;;;;;;;1.90;1.70;;;;;;;;;;5032456;28;20205;-59
2021/12/31 09:39:21;;;;;;;2.90;1.67;;;;;;;;;;5032531;28;20215;-61
2021/12/31 09:41:47;;;;;;;2.30;1.67;;;;;;;;;;5032330;28;20197;-61
2021/12/31 09:44:15;;;;;;;1.70;1.60;;;;;;;;;;5032182;28;20303;-59
2021/12/31 09:46:43;;;;;;;3.40;1.90;;;;;;;;;;5031669;28;20683;-60
2021/12/31 09:49:09;;;;;;;3.87;1.90;;;;;;;;;;5032294;28;20209;-60
2021/12/31 09:51:35;;;;;;;3.30;1.83;;;;;;;;;;5032412;28;20200;-60
2021/12/31 09:54:01;;;;;;;2.73;1.73;;;;;;;;;;5030526;28;20228;-60
2021/12/31 09:56:27;;;;;;;5.37;1.70;;;;;;;;;;5028995;28;20323;-60
2021/12/31 09:58:53;;;;;;;3.70;1.70;;;;;;;;;;5030274;28;20597;-61
2021/12/31 10:01:20;;;;;;;1.87;1.50;;;;;;;;;;5031773;28;20208;-60
2021/12/31 10:03:55;;;;;;;3.50;1.93;;;;;;;;;;5032183;28;20231;-60
2021/12/31 10:06:21;;;;;;;2.43;1.70;;;;;;;;;;5031769;28;20698;-60
2021/12/31 10:08:48;;;;;;;2.60;1.50;;;;;;;;;;5031863;28;20200;-60
2021/12/31 10:11:17;;;;;;;4.50;2.10;;;;;;;;;;5032166;28;20197;-63
2021/12/31 10:13:44;;;;;;;3.00;1.87;;;;;;;;;;5031960;28;20197;-60
2021/12/31 10:16:23;;;;;;;3.97;1.87;;;;;;;;;;5031963;28;20286;-60
2021/12/31 10:18:49;;;;;;;3.50;1.70;;;;;;;;;;5031888;28;20193;-61
2021/12/31 10:21:19;;;;;;;2.03;1.57;;;;;;;;;;5031991;28;20295;-60
2021/12/31 10:23:46;;;;;;;3.07;1.67;;;;;;;;;;5031866;28;20288;-61
2021/12/31 10:26:13;;;;;;;3.23;1.60;;;;;;;;;;5031802;28;20213;-60
2021/12/31 10:28:51;;;;;;;3.13;1.73;;;;;;;;;;5031839;28;20197;-60
2021/12/31 10:31:17;;;;;;;2.83;2.00;;;;;;;;;;5031941;28;20558;-60
2021/12/31 10:33:44;;;;;;;2.90;1.67;;;;;;;;;;5031464;28;20695;-61
2021/12/31 10:36:30;;;;;;;1.93;1.50;;;;;;;;;;5031423;28;20192;-60
2021/12/31 10:38:58;;;;;;;5.93;2.50;;;;;;;;;;5031906;28;20255;-60
2021/12/31 10:41:24;;;;;;;1.90;1.63;;;;;;;;;;5031376;28;20713;-60
2021/12/31 10:43:54;;;;;;;3.30;1.77;;;;;;;;;;5031569;28;20300;-61
2021/12/31 10:49:31;;;;;;;2.40;1.90;;;;;;;;;;5023705;28;20196;-60
2021/12/31 10:52:04;;;;;;;2.20;1.53;;;;;;;;;;5031298;28;20224;-61
2021/12/31 10:54:47;;;;;;;4.10;2.00;;;;;;;;;;5031402;28;20221;-60
2021/12/31 10:57:13;;;;;;;3.13;1.73;;;;;;;;;;5031370;28;20200;-61
2021/12/31 10:59:39;;;;;;;2.43;1.77;;;;;;;;;;5031255;28;20281;-60
2021/12/31 11:02:06;;;;;;;6.63;2.07;;;;;;;;;;5031135;28;20208;-59
2021/12/31 11:04:37;;;;;;;3.93;1.53;;;;;;;;;;5030997;28;20271;-60
2021/12/31 11:07:04;;;;;;;5.30;1.90;;;;;;;;;;5031398;28;20548;-60
2021/12/31 11:09:48;;;;;;;3.70;1.80;;;;;;;;;;5030653;28;20201;-60
2021/12/31 11:12:15;;;;;;;2.37;1.53;;;;;;;;;;5034741;28;20201;-61
2021/12/31 11:14:41;;;;;;;8.07;2.17;;;;;;;;;;5034575;28;20197;-59
2021/12/31 11:17:07;;;;;;;4.50;1.90;;;;;;;;;;5035094;28;20205;-61
2021/12/31 11:19:35;;;;;;;3.00;1.73;;;;;;;;;;5035082;28;20200;-61
2021/12/31 11:22:01;;;;;;;3.23;1.80;;;;;;;;;;5035108;28;20201;-60
2021/12/31 11:24:31;;;;;;;2.00;1.70;;;;;;;;;;5034878;28;20254;-60
2021/12/31 11:26:59;;;;;;;2.53;1.70;;;;;;;;;;5034920;28;20655;-61
2021/12/31 11:29:35;;;;;;;3.13;1.80;;;;;;;;;;5034973;28;20201;-60
2021/12/31 11:32:00;;;;;;;3.73;1.83;;;;;;;;;;5033059;28;20224;-60
2021/12/31 11:34:28;;;;;;;3.17;1.80;;;;;;;;;;5034932;28;20232;-61
2021/12/31 11:36:55;;;;;;;2.20;1.70;;;;;;;;;;5034709;28;20207;-60
2021/12/31 11:39:26;;;;;;;1.90;1.70;;;;;;;;;;5034851;28;20201;-60
2021/12/31 11:41:52;;;;;;;2.70;1.77;;;;;;;;;;5034626;28;20201;-60
2021/12/31 11:44:23;;;;;;;2.43;1.80;;;;;;;;;;5034699;28;20200;-60
2021/12/31 11:46:49;;;;;;;2.37;1.60;;;;;;;;;;5034464;28;20672;-61
2021/12/31 11:49:20;;;;;;;5.23;1.97;;;;;;;;;;5034796;28;20205;-60
2021/12/31 11:52:04;;;;;;;4.23;1.83;;;;;;;;;;5034584;28;20196;-60
2021/12/31 11:54:30;;;;;;;3.33;1.90;;;;;;;;;;5034524;28;20291;-61
2021/12/31 11:57:01;;;;;;;2.43;1.70;;;;;;;;;;5034157;28;20305;-60
2021/12/31 11:59:29;;;;;;;2.73;2.00;;;;;;;;;;5034491;28;20205;-60
2021/12/31 12:02:05;;;;;;;4.10;1.90;;;;;;;;;;5034034;28;20904;-60
2021/12/31 12:04:32;;;;;;;2.53;1.67;;;;;;;;;;5027354;28;20211;-57
2021/12/31 12:06:59;;;;;;;3.23;1.90;;;;;;;;;;5033982;28;20200;-59
2021/12/31 12:09:45;;;;;;;3.03;1.60;;;;;;;;;;5033913;28;20204;-60
2021/12/31 12:12:13;;;;;;;3.20;1.80;;;;;;;;;;5032106;28;20247;-63
2021/12/31 12:14:41;;;;;;;2.40;1.70;;;;;;;;;;5034176;28;20254;-63
2021/12/31 12:17:08;;;;;;;3.67;1.90;;;;;;;;;;5033739;28;20201;-63
2021/12/31 12:19:58;;;;;;;2.97;1.77;;;;;;;;;;5033589;28;20192;-63
2021/12/31 12:22:25;;;;;;;2.53;2.10;;;;;;;;;;5018469;28;20239;-62
2021/12/31 12:24:52;;;;;;;3.73;2.00;;;;;;;;;;5033588;28;20248;-61
2021/12/31 12:27:19;;;;;;;2.87;1.90;;;;;;;;;;5034013;28;20204;-62
2021/12/31 12:29:46;;;;;;;5.13;1.90;;;;;;;;;;5033823;28;20745;-63
2021/12/31 12:32:14;;;;;;;1.97;1.60;;;;;;;;;;5033487;28;20820;-63
2021/12/31 12:34:40;;;;;;;1.83;1.73;;;;;;;;;;5033639;28;20227;-63
2021/12/31 12:37:06;;;;;;;2.30;1.80;;;;;;;;;;5032882;28;20723;-63
2021/12/31 12:39:32;;;;;;;2.23;1.73;;;;;;;;;;5029772;28;20201;-63
2021/12/31 12:41:58;;;;;;;3.90;1.93;;;;;;;;;;5032776;28;20662;-63
2021/12/31 12:44:24;;;;;;;3.47;2.00;;;;;;;;;;5031294;28;20216;-62
2021/12/31 12:46:55;;;;;;;2.47;1.90;;;;;;;;;;5032904;28;20295;-64
2021/12/31 12:49:24;;;;;;;2.23;1.50;;;;;;;;;;5033392;28;20296;-63
2021/12/31 12:51:50;;;;;;;2.60;1.70;;;;;;;;;;5033214;28;20216;-62
2021/12/31 12:54:19;;;;;;;4.43;2.43;;;;;;;;;;5033060;28;20645;-64
2021/12/31 12:56:45;;;;;;;3.67;1.90;;;;;;;;;;5033015;28;20236;-63
2021/12/31 12:59:19;;;;;;;2.93;1.70;;;;;;;;;;5032814;28;20283;-64
2021/12/31 13:01:49;;;;;;;2.37;1.57;;;;;;;;;;5033065;28;20275;-63
2021/12/31 13:04:17;;;;;;;2.60;1.57;;;;;;;;;;5032301;28;20201;-62
2021/12/31 13:06:44;;;;;;;2.00;1.80;;;;;;;;;;5032911;28;20232;-63
2021/12/31 13:09:15;;;;;;;2.13;1.87;;;;;;;;;;5032629;28;20204;-64
2021/12/31 13:11:44;;;;;;;2.37;1.53;;;;;;;;;;5032687;28;20201;-64
2021/12/31 13:14:11;;;;;;;2.47;2.00;;;;;;;;;;5032456;28;20331;-63
2021/12/31 13:16:37;;;;;;;2.03;1.70;;;;;;;;;;5032639;28;20204;-64
2021/12/31 13:19:07;;;;;;;4.37;1.90;;;;;;;;;;5032364;28;20682;-63
2021/12/31 13:21:35;;;;;;;2.73;1.70;;;;;;;;;;5032493;28;20205;-64
2021/12/31 13:24:02;;;;;;;1.83;1.60;;;;;;;;;;5032038;28;20201;-63
2021/12/31 13:26:28;;;;;;;3.47;1.53;;;;;;;;;;5032063;28;20224;-64
2021/12/31 13:28:56;;;;;;;2.63;1.57;;;;;;;;;;5031985;28;20216;-63
2021/12/31 13:31:33;;;;;;;2.23;1.67;;;;;;;;;;5031785;28;20654;-63
2021/12/31 13:34:10;;;;;;;3.23;1.80;;;;;;;;;;5031483;28;20200;-63
2021/12/31 13:36:43;;;;;;;2.30;2.10;;;;;;;;;;5032191;28;20192;-63
2021/12/31 13:39:10;;;;;;;2.90;1.90;;;;;;;;;;5031823;28;20205;-64
2021/12/31 13:41:46;;;;;;;2.03;1.70;;;;;;;;;;5032116;28;20204;-63
2021/12/31 13:44:12;;;;;;;3.80;1.87;;;;;;;;;;5031690;28;20662;-64
2021/12/31 13:46:40;;;;;;;5.77;2.30;;;;;;;;;;5031828;28;20224;-63
2021/12/31 13:49:07;;;;;;;2.07;1.87;;;;;;;;;;5031794;28;20205;-63
2021/12/31 13:51:35;;;;;;;2.37;1.80;;;;;;;;;;5031776;28;20323;-64
2021/12/31 13:54:03;;;;;;;2.37;1.77;;;;;;;;;;5031747;28;20582;-64
2021/12/31 13:56:33;;;;;;;4.23;2.20;;;;;;;;;;5031558;28;20240;-63
2021/12/31 13:58:59;;;;;;;5.53;2.00;;;;;;;;;;5031534;28;20599;-62
2021/12/31 14:01:25;;;;;;;4.47;2.13;;;;;;;;;;5031392;28;20204;-62
2021/12/31 14:04:06;;;;;;;2.50;1.80;;;;;;;;;;5031726;28;20201;-63
2021/12/31 14:06:32;;;;;;;3.70;1.87;;;;;;;;;;5031533;28;20233;-63
2021/12/31 14:08:58;;;;;;;2.67;2.20;;;;;;;;;;5031452;28;20201;-62
2021/12/31 14:11:25;;;;;;;5.63;2.30;;;;;;;;;;5031566;28;20279;-63
2021/12/31 14:13:51;;;;;;;2.50;2.17;;;;;;;;;;5031506;28;20200;-63
2021/12/31 14:16:17;;;;;;;3.23;2.10;;;;;;;;;;5031275;28;20197;-62
2021/12/31 14:18:44;;;;;;;2.97;2.20;;;;;;;;;;5031336;28;20200;-60
2021/12/31 14:21:10;;;;;;;5.53;2.30;;;;;;;;;;5031511;28;20200;-60
2021/12/31 14:23:36;;;;;;;3.87;2.87;;;;;;;;;;5031227;28;20220;-60
2021/12/31 14:26:02;;;;;;;4.53;2.40;;;;;;;;;;5031026;28;20325;-60
2021/12/31 14:28:29;;;;;;;4.03;2.50;;;;;;;;;;5031494;28;20215;-60
2021/12/31 14:30:55;;;;;;;4.70;3.03;;;;;;;;;;5031200;28;20686;-60
2021/12/31 14:33:21;;;;;;;5.23;2.60;;;;;;;;;;5031362;28;20192;-61
2021/12/31 14:35:51;;;;;;;4.17;2.50;;;;;;;;;;5031309;28;20197;-60
2021/12/31 14:38:21;;;;;;;3.80;2.57;;;;;;;;;;5031343;28;20697;-61
2021/12/31 14:40:50;;;;;;;4.40;2.50;;;;;;;;;;5031429;28;20203;-60
2021/12/31 14:43:16;;;;;;;5.03;2.80;;;;;;;;;;5031215;28;20207;-65
2021/12/31 14:45:43;;;;;;;3.77;2.80;;;;;;;;;;5035323;28;20225;-65
2021/12/31 14:48:10;;;;;;;4.37;2.70;;;;;;;;;;5035262;28;20630;-60
2021/12/31 14:50:36;;;;;;;4.67;2.80;;;;;;;;;;5035354;28;20264;-60